EBOS

Ostend-Bruges International Airport

Ostend, Belgium
METAR EBOS 241120Z 32011KT 9999 FEW039 15/06 Q1037 NOSIG
Observed Flight Rules
Sep-24 @ 11:20 UTC (13 minutes ago) Visual Flight Rules
Wind Visibility Clouds
320° at 11 knots 10,000+ meters
  • Few at 3,900' AGL
Temperatures Readings
Current 15°C / 59°F
Dewpoint 6°C / 43°F
Humidity 55%
Altimeter 30.62" Hg
Pressure 1037 hPa
Elevation 5
METAR EBOS 241120Z 32011KT 9999 FEW039 15/06 Q1037 NOSIG
Observed Flight Rules
Sep-24 @ 11:20 UTC
(13 minutes ago)
VFR
Wind Visibility
320° at 11 knots 10,000+ meters
Clouds
  • Few at 3,900' AGL
Temperature Dewpoint
15°C / 59°F 6°C / 43°F
Humidity Altimeter Pressure
55% 30.62" Hg 1037 hPa